sensor_id;sensor_type;location;lat;lon;timestamp;pressure;altitude;pressure_sealevel;temperature;humidity
49178;BME280;35016;55.674;37.468;2023-03-04T00:01:34;97335.34;;;-0.73;69.03
49178;BME280;35016;55.674;37.468;2023-03-04T00:04:03;97331.06;;;-0.74;69.35
49178;BME280;35016;55.674;37.468;2023-03-04T00:06:35;97332.91;;;-0.75;69.24
49178;BME280;35016;55.674;37.468;2023-03-04T00:09:16;97332.69;;;-0.73;69.07
49178;BME280;35016;55.674;37.468;2023-03-04T00:11:47;97324.44;;;-0.72;69.23
49178;BME280;35016;55.674;37.468;2023-03-04T00:14:17;97326.06;;;-0.71;69.42
49178;BME280;35016;55.674;37.468;2023-03-04T00:16:46;97321.53;;;-0.70;68.98
49178;BME280;35016;55.674;37.468;2023-03-04T00:19:17;97318.66;;;-0.69;69.34
49178;BME280;35016;55.674;37.468;2023-03-04T00:21:49;97311.72;;;-0.70;69.29
49178;BME280;35016;55.674;37.468;2023-03-04T00:24:16;97313.31;;;-0.69;69.31
49178;BME280;35016;55.674;37.468;2023-03-04T00:26:43;97308.25;;;-0.70;69.31
49178;BME280;35016;55.674;37.468;2023-03-04T00:29:13;97302.34;;;-0.72;69.35
49178;BME280;35016;55.674;37.468;2023-03-04T00:31:41;97303.16;;;-0.72;69.14
49178;BME280;35016;55.674;37.468;2023-03-04T00:34:08;97298.88;;;-0.73;69.23
49178;BME280;35016;55.674;37.468;2023-03-04T00:36:35;97299.94;;;-0.74;69.34
49178;BME280;35016;55.674;37.468;2023-03-04T00:39:08;97295.91;;;-0.76;69.38
49178;BME280;35016;55.674;37.468;2023-03-04T00:41:38;97295.84;;;-0.81;69.34
49178;BME280;35016;55.674;37.468;2023-03-04T00:44:09;97288.56;;;-0.86;69.44
49178;BME280;35016;55.674;37.468;2023-03-04T00:46:46;97293.53;;;-0.89;69.42
49178;BME280;35016;55.674;37.468;2023-03-04T00:49:14;97295.97;;;-0.88;69.53
49178;BME280;35016;55.674;37.468;2023-03-04T00:51:42;97294.34;;;-0.89;69.63
49178;BME280;35016;55.674;37.468;2023-03-04T00:54:10;97295.97;;;-0.88;69.62
49178;BME280;35016;55.674;37.468;2023-03-04T00:56:38;97296.56;;;-0.86;69.43
49178;BME280;35016;55.674;37.468;2023-03-04T00:59:06;97301.63;;;-0.84;69.60
49178;BME280;35016;55.674;37.468;2023-03-04T01:01:34;97297.13;;;-0.84;69.33
49178;BME280;35016;55.674;37.468;2023-03-04T01:04:02;97292.84;;;-0.85;69.63
49178;BME280;35016;55.674;37.468;2023-03-04T01:06:30;97290.44;;;-0.86;69.62
49178;BME280;35016;55.674;37.468;2023-03-04T01:08:58;97287.78;;;-0.86;69.63
49178;BME280;35016;55.674;37.468;2023-03-04T01:11:26;97289.38;;;-0.85;69.55
49178;BME280;35016;55.674;37.468;2023-03-04T01:13:54;97284.88;;;-0.85;69.76
49178;BME280;35016;55.674;37.468;2023-03-04T01:16:22;97284.63;;;-0.83;69.53
49178;BME280;35016;55.674;37.468;2023-03-04T01:19:48;97285.75;;;-0.79;69.63
49178;BME280;35016;55.674;37.468;2023-03-04T01:22:16;97290.59;;;-0.76;69.62
49178;BME280;35016;55.674;37.468;2023-03-04T01:24:46;97287.38;;;-0.78;69.50
49178;BME280;35016;55.674;37.468;2023-03-04T01:27:15;97285.75;;;-0.79;69.63
49178;BME280;35016;55.674;37.468;2023-03-04T01:29:44;97279.63;;;-0.80;69.65
49178;BME280;35016;55.674;37.468;2023-03-04T01:32:14;97262.63;;;-0.79;69.79
49178;BME280;35016;55.674;37.468;2023-03-04T01:34:42;97269.31;;;-0.76;69.85
49178;BME280;35016;55.674;37.468;2023-03-04T01:37:11;97266.41;;;-0.75;69.68
49178;BME280;35016;55.674;37.468;2023-03-04T01:39:39;97278.41;;;-0.72;69.96
49178;BME280;35016;55.674;37.468;2023-03-04T01:42:25;97271.00;;;-0.70;69.73
49178;BME280;35016;55.674;37.468;2023-03-04T01:44:53;97271.00;;;-0.70;69.93
49178;BME280;35016;55.674;37.468;2023-03-04T01:47:21;97263.25;;;-0.72;69.65
49178;BME280;35016;55.674;37.468;2023-03-04T01:49:52;97263.81;;;-0.70;69.69
49178;BME280;35016;55.674;37.468;2023-03-04T01:52:21;97253.16;;;-0.70;69.66
49178;BME280;35016;55.674;37.468;2023-03-04T01:54:52;97250.50;;;-0.70;69.89
49178;BME280;35016;55.674;37.468;2023-03-04T01:57:21;97243.34;;;-0.69;70.05
49178;BME280;35016;55.674;37.468;2023-03-04T02:02:39;97241.16;;;-0.72;69.75
49178;BME280;35016;55.674;37.468;2023-03-04T02:05:07;97233.97;;;-0.72;70.12
49178;BME280;35016;55.674;37.468;2023-03-04T02:07:36;97227.84;;;-0.72;69.99
49178;BME280;35016;55.674;37.468;2023-03-04T02:10:04;97223.59;;;-0.73;69.84
49178;BME280;35016;55.674;37.468;2023-03-04T02:12:33;97228.91;;;-0.73;69.72
49178;BME280;35016;55.674;37.468;2023-03-04T02:15:01;97220.13;;;-0.74;69.86
49178;BME280;35016;55.674;37.468;2023-03-04T02:17:30;97217.47;;;-0.74;69.69
49178;BME280;35016;55.674;37.468;2023-03-04T02:22:39;97208.91;;;-0.76;69.94
49178;BME280;35016;55.674;37.468;2023-03-04T02:25:10;97201.66;;;-0.80;69.73
49178;BME280;35016;55.674;37.468;2023-03-04T02:27:40;97197.88;;;-0.84;69.83
49178;BME280;35016;55.674;37.468;2023-03-04T02:30:09;97195.22;;;-0.84;70.05
49178;BME280;35016;55.674;37.468;2023-03-04T02:32:37;97188.28;;;-0.85;70.21
49178;BME280;35016;55.674;37.468;2023-03-04T02:35:05;97184.81;;;-0.86;69.87
49178;BME280;35016;55.674;37.468;2023-03-04T02:37:33;97181.34;;;-0.86;70.00
49178;BME280;35016;55.674;37.468;2023-03-04T02:40:00;97182.38;;;-0.87;70.16
49178;BME280;35016;55.674;37.468;2023-03-04T02:42:28;97186.91;;;-0.88;70.13
49178;BME280;35016;55.674;37.468;2023-03-04T02:44:59;97177.88;;;-0.87;70.11
49178;BME280;35016;55.674;37.468;2023-03-04T02:47:28;97169.06;;;-0.87;70.26
49178;BME280;35016;55.674;37.468;2023-03-04T02:49:55;97172.53;;;-0.87;70.09
49178;BME280;35016;55.674;37.468;2023-03-04T02:52:25;97167.22;;;-0.87;70.13
49178;BME280;35016;55.674;37.468;2023-03-04T02:54:53;97166.41;;;-0.87;70.07
49178;BME280;35016;55.674;37.468;2023-03-04T02:57:21;97167.22;;;-0.87;70.16
49178;BME280;35016;55.674;37.468;2023-03-04T02:59:53;97169.31;;;-0.89;70.18
49178;BME280;35016;55.674;37.468;2023-03-04T03:02:24;97170.13;;;-0.88;70.10
49178;BME280;35016;55.674;37.468;2023-03-04T03:04:53;97168.53;;;-0.89;70.24
49178;BME280;35016;55.674;37.468;2023-03-04T03:07:21;97162.31;;;-0.95;70.01
49178;BME280;35016;55.674;37.468;2023-03-04T03:09:49;97156.63;;;-1.04;70.11
49178;BME280;35016;55.674;37.468;2023-03-04T03:12:17;97155.00;;;-1.05;70.27
49178;BME280;35016;55.674;37.468;2023-03-04T03:14:45;97156.06;;;-1.06;70.25
49178;BME280;35016;55.674;37.468;2023-03-04T03:17:16;97155.75;;;-1.09;70.08
49178;BME280;35016;55.674;37.468;2023-03-04T03:19:45;97153.47;;;-1.17;70.20
49178;BME280;35016;55.674;37.468;2023-03-04T03:22:13;97150.72;;;-1.22;70.29
49178;BME280;35016;55.674;37.468;2023-03-04T03:24:41;97134.22;;;-1.25;70.22
49178;BME280;35016;55.674;37.468;2023-03-04T03:27:09;97133.66;;;-1.27;70.40
49178;BME280;35016;55.674;37.468;2023-03-04T03:29:38;97141.06;;;-1.29;70.25
49178;BME280;35016;55.674;37.468;2023-03-04T03:32:06;97135.66;;;-1.34;70.29
49178;BME280;35016;55.674;37.468;2023-03-04T03:34:34;97129.78;;;-1.36;70.42
49178;BME280;35016;55.674;37.468;2023-03-04T03:37:02;97135.09;;;-1.36;70.39
49178;BME280;35016;55.674;37.468;2023-03-04T03:39:29;97121.00;;;-1.36;70.41
49178;BME280;35016;55.674;37.468;2023-03-04T03:41:57;97125.53;;;-1.37;70.45
49178;BME280;35016;55.674;37.468;2023-03-04T03:44:26;97121.09;;;-1.31;70.52
49178;BME280;35016;55.674;37.468;2023-03-04T03:46:54;97119.81;;;-1.29;70.39
49178;BME280;35016;55.674;37.468;2023-03-04T03:49:21;97116.66;;;-1.26;70.43
49178;BME280;35016;55.674;37.468;2023-03-04T03:51:49;97119.63;;;-1.22;70.49
49178;BME280;35016;55.674;37.468;2023-03-04T03:54:16;97117.28;;;-1.18;70.14
49178;BME280;35016;55.674;37.468;2023-03-04T03:56:43;97097.38;;;-1.16;70.44
49178;BME280;35016;55.674;37.468;2023-03-04T03:59:11;97093.22;;;-1.12;70.33
49178;BME280;35016;55.674;37.468;2023-03-04T04:01:38;97085.22;;;-1.12;70.21
49178;BME280;35016;55.674;37.468;2023-03-04T04:04:05;97083.94;;;-1.09;70.26
49178;BME280;35016;55.674;37.468;2023-03-04T04:06:33;97081.84;;;-1.07;70.39
49178;BME280;35016;55.674;37.468;2023-03-04T04:09:01;97082.16;;;-1.04;70.19
49178;BME280;35016;55.674;37.468;2023-03-04T04:11:29;97070.78;;;-0.99;70.00
49178;BME280;35016;55.674;37.468;2023-03-04T04:13:56;97075.59;;;-0.96;70.18
49178;BME280;35016;55.674;37.468;2023-03-04T04:16:24;97074.56;;;-0.95;70.40
49178;BME280;35016;55.674;37.468;2023-03-04T04:18:52;97063.09;;;-0.96;70.19
49178;BME280;35016;55.674;37.468;2023-03-04T04:21:20;97061.00;;;-0.94;70.28
49178;BME280;35016;55.674;37.468;2023-03-04T04:23:48;97050.91;;;-0.91;70.20
49178;BME280;35016;55.674;37.468;2023-03-04T04:26:16;97059.47;;;-0.89;70.18
49178;BME280;35016;55.674;37.468;2023-03-04T04:28:43;97062.91;;;-0.89;70.27
49178;BME280;35016;55.674;37.468;2023-03-04T04:31:11;97060.25;;;-0.89;70.16
49178;BME280;35016;55.674;37.468;2023-03-04T04:33:39;97061.06;;;-0.88;70.37
49178;BME280;35016;55.674;37.468;2023-03-04T04:36:08;97052.63;;;-0.85;70.25
49178;BME280;35016;55.674;37.468;2023-03-04T04:38:36;97056.16;;;-0.80;70.28
49178;BME280;35016;55.674;37.468;2023-03-04T04:41:04;97052.50;;;-0.74;70.24
49178;BME280;35016;55.674;37.468;2023-03-04T04:43:31;97043.22;;;-0.71;70.38
49178;BME280;35016;55.674;37.468;2023-03-04T04:45:59;97048.03;;;-0.68;70.11
49178;BME280;35016;55.674;37.468;2023-03-04T04:48:26;97055.25;;;-0.64;70.41
49178;BME280;35016;55.674;37.468;2023-03-04T04:50:54;97051.06;;;-0.59;70.10
49178;BME280;35016;55.674;37.468;2023-03-04T04:53:22;97048.97;;;-0.57;70.14
49178;BME280;35016;55.674;37.468;2023-03-04T04:55:49;97046.38;;;-0.52;70.14
49178;BME280;35016;55.674;37.468;2023-03-04T04:58:17;97050.94;;;-0.48;70.27
49178;BME280;35016;55.674;37.468;2023-03-04T05:00:45;97043.31;;;-0.39;69.93
49178;BME280;35016;55.674;37.468;2023-03-04T05:03:13;97041.25;;;-0.32;70.20
49178;BME280;35016;55.674;37.468;2023-03-04T05:05:45;97030.41;;;-0.25;69.83
49178;BME280;35016;55.674;37.468;2023-03-04T05:08:13;97034.19;;;-0.21;70.10
49178;BME280;35016;55.674;37.468;2023-03-04T05:10:40;97030.50;;;-0.15;69.93
49178;BME280;35016;55.674;37.468;2023-03-04T05:13:08;97028.69;;;-0.10;70.00
49178;BME280;35016;55.674;37.468;2023-03-04T05:15:36;97025.56;;;-0.02;70.21
49178;BME280;35016;55.674;37.468;2023-03-04T05:18:03;97025.13;;;0.07;69.91
49178;BME280;35016;55.674;37.468;2023-03-04T05:20:31;97025.97;;;0.12;69.89
49178;BME280;35016;55.674;37.468;2023-03-04T05:22:58;97023.34;;;0.17;70.08
49178;BME280;35016;55.674;37.468;2023-03-04T05:25:25;97023.94;;;0.24;70.25
49178;BME280;35016;55.674;37.468;2023-03-04T05:27:53;97024.56;;;0.32;69.98
49178;BME280;35016;55.674;37.468;2023-03-04T05:30:20;97020.06;;;0.37;69.88
49178;BME280;35016;55.674;37.468;2023-03-04T05:32:47;97026.47;;;0.41;70.06
49178;BME280;35016;55.674;37.468;2023-03-04T05:35:14;97025.44;;;0.47;70.21
49178;BME280;35016;55.674;37.468;2023-03-04T05:37:41;97030.03;;;0.57;69.60
49178;BME280;35016;55.674;37.468;2023-03-04T05:40:08;97019.97;;;0.64;70.19
49178;BME280;35016;55.674;37.468;2023-03-04T05:42:35;97025.31;;;0.64;70.10
49178;BME280;35016;55.674;37.468;2023-03-04T05:45:05;97021.81;;;0.58;70.16
49178;BME280;35016;55.674;37.468;2023-03-04T05:47:33;97018.03;;;0.54;70.35
49178;BME280;35016;55.674;37.468;2023-03-04T05:50:03;97012.16;;;0.52;70.26
49178;BME280;35016;55.674;37.468;2023-03-04T05:52:31;97009.78;;;0.56;70.25
49178;BME280;35016;55.674;37.468;2023-03-04T05:54:58;97008.22;;;0.60;70.04
49178;BME280;35016;55.674;37.468;2023-03-04T05:57:28;97003.72;;;0.66;70.15
49178;BME280;35016;55.674;37.468;2023-03-04T05:59:58;97005.91;;;0.74;70.17
49178;BME280;35016;55.674;37.468;2023-03-04T06:02:26;97011.53;;;0.82;70.00
49178;BME280;35016;55.674;37.468;2023-03-04T06:04:56;97006.53;;;0.91;70.54
49178;BME280;35016;55.674;37.468;2023-03-04T06:07:23;97002.56;;;0.99;70.50
49178;BME280;35016;55.674;37.468;2023-03-04T06:09:50;96995.38;;;1.04;70.17
49178;BME280;35016;55.674;37.468;2023-03-04T06:12:17;96986.59;;;1.09;70.36
49178;BME280;35016;55.674;37.468;2023-03-04T06:14:45;96989.28;;;1.14;70.06
49178;BME280;35016;55.674;37.468;2023-03-04T06:17:14;96991.75;;;1.26;70.23
49178;BME280;35016;55.674;37.468;2023-03-04T06:19:42;96991.00;;;1.40;70.35
49178;BME280;35016;55.674;37.468;2023-03-04T06:22:09;96986.50;;;1.56;70.21
49178;BME280;35016;55.674;37.468;2023-03-04T06:24:36;96990.81;;;1.72;69.75
49178;BME280;35016;55.674;37.468;2023-03-04T06:27:04;96984.69;;;1.87;69.85
49178;BME280;35016;55.674;37.468;2023-03-04T06:29:31;96984.16;;;1.95;69.78
49178;BME280;35016;55.674;37.468;2023-03-04T06:31:59;96975.34;;;2.00;69.83
49178;BME280;35016;55.674;37.468;2023-03-04T06:34:26;96972.16;;;2.03;69.78
49178;BME280;35016;55.674;37.468;2023-03-04T06:36:53;96970.81;;;2.00;69.96
49178;BME280;35016;55.674;37.468;2023-03-04T06:39:20;96965.47;;;1.95;69.65
49178;BME280;35016;55.674;37.468;2023-03-04T06:41:47;96967.34;;;1.95;70.01
49178;BME280;35016;55.674;37.468;2023-03-04T06:44:14;96966.25;;;1.96;69.79
49178;BME280;35016;55.674;37.468;2023-03-04T06:46:42;96968.94;;;2.01;70.09
49178;BME280;35016;55.674;37.468;2023-03-04T06:49:09;96957.19;;;2.12;70.23
49178;BME280;35016;55.674;37.468;2023-03-04T06:51:36;96953.16;;;2.25;70.01
49178;BME280;35016;55.674;37.468;2023-03-04T06:54:03;96958.50;;;2.30;69.47
49178;BME280;35016;55.674;37.468;2023-03-04T06:56:30;96951.56;;;2.34;69.68
49178;BME280;35016;55.674;37.468;2023-03-04T06:58:57;96951.81;;;2.42;69.72
49178;BME280;35016;55.674;37.468;2023-03-04T07:01:25;96940.03;;;2.54;69.67
49178;BME280;35016;55.674;37.468;2023-03-04T07:03:52;96938.44;;;2.63;69.44
49178;BME280;35016;55.674;37.468;2023-03-04T07:06:20;96941.59;;;2.70;69.58
49178;BME280;35016;55.674;37.468;2023-03-04T07:08:48;96930.38;;;2.73;69.33
49178;BME280;35016;55.674;37.468;2023-03-04T07:11:16;96934.63;;;2.74;69.49
49178;BME280;35016;55.674;37.468;2023-03-04T07:13:44;96929.31;;;2.69;69.17
49178;BME280;35016;55.674;37.468;2023-03-04T07:16:12;96922.38;;;2.63;69.53
49178;BME280;35016;55.674;37.468;2023-03-04T07:18:40;96919.97;;;2.61;69.71
49178;BME280;35016;55.674;37.468;2023-03-04T07:21:07;96914.34;;;2.58;69.42
49178;BME280;35016;55.674;37.468;2023-03-04T07:23:34;96907.66;;;2.55;69.68
49178;BME280;35016;55.674;37.468;2023-03-04T07:26:01;96916.75;;;2.64;69.67
49178;BME280;35016;55.674;37.468;2023-03-04T07:28:28;96909.72;;;2.78;69.74
49178;BME280;35016;55.674;37.468;2023-03-04T07:30:55;96902.22;;;2.91;69.71
49178;BME280;35016;55.674;37.468;2023-03-04T07:33:22;96898.69;;;3.00;69.63
49178;BME280;35016;55.674;37.468;2023-03-04T07:35:56;96891.94;;;3.08;69.58
49178;BME280;35016;55.674;37.468;2023-03-04T07:38:24;96891.63;;;3.15;69.48
49178;BME280;35016;55.674;37.468;2023-03-04T07:40:58;96895.63;;;3.17;69.32
49178;BME280;35016;55.674;37.468;2023-03-04T07:43:25;96890.56;;;3.21;69.30
49178;BME280;35016;55.674;37.468;2023-03-04T07:45:57;96886.00;;;3.21;69.35
49178;BME280;35016;55.674;37.468;2023-03-04T07:48:25;96885.72;;;3.23;69.41
49178;BME280;35016;55.674;37.468;2023-03-04T07:51:09;96882.53;;;3.21;69.45
49178;BME280;35016;55.674;37.468;2023-03-04T07:53:37;96881.22;;;3.18;69.55
49178;BME280;35016;55.674;37.468;2023-03-04T07:56:04;96885.72;;;3.18;69.40
49178;BME280;35016;55.674;37.468;2023-03-04T07:58:32;96870.22;;;3.15;69.69
49178;BME280;35016;55.674;37.468;2023-03-04T08:00:59;96872.41;;;3.07;69.63
49178;BME280;35016;55.674;37.468;2023-03-04T08:03:28;96869.25;;;3.00;69.71
49178;BME280;35016;55.674;37.468;2023-03-04T08:05:55;96874.34;;;2.97;69.89
49178;BME280;35016;55.674;37.468;2023-03-04T08:08:22;96874.09;;;2.93;69.73
49178;BME280;35016;55.674;37.468;2023-03-04T08:10:49;96862.59;;;2.93;69.79
49178;BME280;35016;55.674;37.468;2023-03-04T08:13:16;96871.94;;;2.95;69.97
49178;BME280;35016;55.674;37.468;2023-03-04T08:15:43;96858.81;;;2.99;69.70
49178;BME280;35016;55.674;37.468;2023-03-04T08:18:09;96864.66;;;3.06;69.75
49178;BME280;35016;55.674;37.468;2023-03-04T08:20:36;96850.97;;;3.13;69.63
49178;BME280;35016;55.674;37.468;2023-03-04T08:23:06;96843.72;;;3.18;69.74
49178;BME280;35016;55.674;37.468;2023-03-04T08:25:37;96849.31;;;3.17;69.66
49178;BME280;35016;55.674;37.468;2023-03-04T08:28:04;96849.88;;;3.14;69.61
49178;BME280;35016;55.674;37.468;2023-03-04T08:30:32;96849.91;;;3.08;69.69
49178;BME280;35016;55.674;37.468;2023-03-04T08:33:05;96841.44;;;2.96;69.72
49178;BME280;35016;55.674;37.468;2023-03-04T08:35:37;96838.25;;;2.89;69.77
49178;BME280;35016;55.674;37.468;2023-03-04T08:38:05;96843.34;;;2.91;69.77
49178;BME280;35016;55.674;37.468;2023-03-04T08:40:32;96840.06;;;2.99;69.89
49178;BME280;35016;55.674;37.468;2023-03-04T08:42:59;96838.16;;;3.04;69.88
49178;BME280;35016;55.674;37.468;2023-03-04T08:45:26;96834.66;;;3.09;69.69
49178;BME280;35016;55.674;37.468;2023-03-04T08:47:53;96826.06;;;3.12;69.51
49178;BME280;35016;55.674;37.468;2023-03-04T08:50:20;96812.63;;;3.17;69.68
49178;BME280;35016;55.674;37.468;2023-03-04T08:52:48;96815.53;;;3.26;69.51
49178;BME280;35016;55.674;37.468;2023-03-04T08:55:15;96804.19;;;3.39;69.20
49178;BME280;35016;55.674;37.468;2023-03-04T08:57:42;96804.84;;;3.60;69.35
49178;BME280;35016;55.674;37.468;2023-03-04T09:00:09;96806.78;;;3.83;69.15
49178;BME280;35016;55.674;37.468;2023-03-04T09:02:36;96797.50;;;3.99;68.79
49178;BME280;35016;55.674;37.468;2023-03-04T09:05:04;96799.25;;;4.14;68.64
49178;BME280;35016;55.674;37.468;2023-03-04T09:07:30;96791.81;;;4.30;68.56
49178;BME280;35016;55.674;37.468;2023-03-04T09:09:58;96798.47;;;4.38;68.46
49178;BME280;35016;55.674;37.468;2023-03-04T09:12:25;96786.44;;;4.30;68.45
49178;BME280;35016;55.674;37.468;2023-03-04T09:14:51;96785.25;;;4.17;68.54
49178;BME280;35016;55.674;37.468;2023-03-04T09:17:36;96775.19;;;4.04;68.66
49178;BME280;35016;55.674;37.468;2023-03-04T09:20:03;96775.88;;;3.91;69.02
49178;BME280;35016;55.674;37.468;2023-03-04T09:22:35;96775.47;;;3.79;69.20
49178;BME280;35016;55.674;37.468;2023-03-04T09:25:02;96769.44;;;3.63;69.16
49178;BME280;35016;55.674;37.468;2023-03-04T09:27:29;96764.22;;;3.48;69.13
49178;BME280;35016;55.674;37.468;2023-03-04T09:29:56;96752.75;;;3.42;69.21
49178;BME280;35016;55.674;37.468;2023-03-04T09:32:23;96753.06;;;3.35;69.38
49178;BME280;35016;55.674;37.468;2023-03-04T09:34:50;96751.75;;;3.33;69.21
49178;BME280;35016;55.674;37.468;2023-03-04T09:37:17;96737.75;;;3.41;69.42
49178;BME280;35016;55.674;37.468;2023-03-04T09:39:44;96735.13;;;3.65;69.57
49178;BME280;35016;55.674;37.468;2023-03-04T09:42:14;96726.19;;;3.98;69.46
49178;BME280;35016;55.674;37.468;2023-03-04T09:44:42;96722.84;;;4.35;68.78
49178;BME280;35016;55.674;37.468;2023-03-04T09:47:13;96710.31;;;4.69;69.02
49178;BME280;35016;55.674;37.468;2023-03-04T09:49:44;96710.25;;;4.92;68.06
49178;BME280;35016;55.674;37.468;2023-03-04T09:57:29;96692.72;;;5.14;67.99
49178;BME280;35016;55.674;37.468;2023-03-04T10:00:07;96686.44;;;5.18;67.74
49178;BME280;35016;55.674;37.468;2023-03-04T10:03:00;96679.66;;;5.07;67.95
49178;BME280;35016;55.674;37.468;2023-03-04T10:05:56;96681.78;;;4.91;67.52
49178;BME280;35016;55.674;37.468;2023-03-04T10:08:43;96682.00;;;4.76;67.60
49178;BME280;35016;55.674;37.468;2023-03-04T10:11:14;96680.28;;;4.66;67.82
49178;BME280;35016;55.674;37.468;2023-03-04T10:16:17;96663.16;;;4.81;68.04
49178;BME280;35016;55.674;37.468;2023-03-04T10:18:55;96662.41;;;4.94;67.87
49178;BME280;35016;55.674;37.468;2023-03-04T10:21:31;96656.88;;;5.05;68.20
49178;BME280;35016;55.674;37.468;2023-03-04T10:24:00;96650.63;;;5.09;67.92
49178;BME280;35016;55.674;37.468;2023-03-04T10:26:31;96647.84;;;5.14;68.21
49178;BME280;35016;55.674;37.468;2023-03-04T10:28:59;96650.03;;;5.12;67.57
49178;BME280;35016;55.674;37.468;2023-03-04T10:31:37;96639.97;;;5.04;67.91
49178;BME280;35016;55.674;37.468;2023-03-04T10:34:04;96639.66;;;5.06;67.74
49178;BME280;35016;55.674;37.468;2023-03-04T10:36:38;96632.53;;;5.15;67.78
49178;BME280;35016;55.674;37.468;2023-03-04T10:39:10;96629.69;;;5.25;67.68
49178;BME280;35016;55.674;37.468;2023-03-04T10:41:42;96624.72;;;5.32;67.81
49178;BME280;35016;55.674;37.468;2023-03-04T10:44:15;96621.22;;;5.32;68.00
49178;BME280;35016;55.674;37.468;2023-03-04T10:46:43;96616.16;;;5.30;67.78
49178;BME280;35016;55.674;37.468;2023-03-04T10:49:11;96613.97;;;5.32;67.33
49178;BME280;35016;55.674;37.468;2023-03-04T10:51:41;96609.97;;;5.29;68.00
49178;BME280;35016;55.674;37.468;2023-03-04T10:54:13;96604.13;;;5.27;67.41
49178;BME280;35016;55.674;37.468;2023-03-04T10:56:53;96598.84;;;5.22;67.34
49178;BME280;35016;55.674;37.468;2023-03-04T11:01:52;96587.47;;;5.12;67.58
49178;BME280;35016;55.674;37.468;2023-03-04T11:04:31;96590.25;;;5.07;67.63
49178;BME280;35016;55.674;37.468;2023-03-04T11:06:59;96586.25;;;5.04;67.97
49178;BME280;35016;55.674;37.468;2023-03-04T11:09:27;96580.59;;;5.06;67.82
49178;BME280;35016;55.674;37.468;2023-03-04T11:11:54;96569.66;;;5.02;67.67
49178;BME280;35016;55.674;37.468;2023-03-04T11:14:33;96581.06;;;4.94;67.87
49178;BME280;35016;55.674;37.468;2023-03-04T11:17:16;96575.16;;;4.78;67.69
49178;BME280;35016;55.674;37.468;2023-03-04T11:19:44;96570.53;;;4.65;67.67
49178;BME280;35016;55.674;37.468;2023-03-04T11:22:16;96568.00;;;4.55;68.23
49178;BME280;35016;55.674;37.468;2023-03-04T11:24:43;96563.69;;;4.40;68.29
49178;BME280;35016;55.674;37.468;2023-03-04T11:32:39;96551.31;;;4.07;68.11
49178;BME280;35016;55.674;37.468;2023-03-04T11:35:12;96542.00;;;3.99;67.93
49178;BME280;35016;55.674;37.468;2023-03-04T11:40:13;96535.28;;;3.83;68.29
49178;BME280;35016;55.674;37.468;2023-03-04T11:42:47;96532.72;;;3.72;68.26
49178;BME280;35016;55.674;37.468;2023-03-04T11:45:16;96524.53;;;3.64;68.49
49178;BME280;35016;55.674;37.468;2023-03-04T11:50:28;96525.19;;;3.56;68.31
49178;BME280;35016;55.674;37.468;2023-03-04T12:00:50;96501.50;;;2.96;68.26
49178;BME280;35016;55.674;37.468;2023-03-04T12:11:13;96486.03;;;2.93;68.62
49178;BME280;35016;55.674;37.468;2023-03-04T12:16:42;96473.75;;;2.87;68.63
49178;BME280;35016;55.674;37.468;2023-03-04T12:19:16;96473.03;;;2.82;68.56
49178;BME280;35016;55.674;37.468;2023-03-04T12:26:41;96458.09;;;2.75;68.74
49178;BME280;35016;55.674;37.468;2023-03-04T12:35:11;96439.44;;;2.70;68.86
49178;BME280;35016;55.674;37.468;2023-03-04T12:45:41;96428.03;;;2.84;69.15
49178;BME280;35016;55.674;37.468;2023-03-04T12:51:02;96425.94;;;2.80;68.97
49178;BME280;35016;55.674;37.468;2023-03-04T12:53:44;96419.34;;;2.73;69.00
49178;BME280;35016;55.674;37.468;2023-03-04T12:56:41;96416.44;;;2.69;69.39
49178;BME280;35016;55.674;37.468;2023-03-04T12:59:13;96418.59;;;2.67;69.06
49178;BME280;35016;55.674;37.468;2023-03-04T13:10:15;96396.22;;;2.58;69.55
49178;BME280;35016;55.674;37.468;2023-03-04T13:12:48;96381.81;;;2.54;69.47
49178;BME280;35016;55.674;37.468;2023-03-04T13:15:16;96383.72;;;2.54;69.50
49178;BME280;35016;55.674;37.468;2023-03-04T13:25:42;96377.00;;;2.56;69.66
49178;BME280;35016;55.674;37.468;2023-03-04T13:43:40;96338.94;;;2.40;70.28
49178;BME280;35016;55.674;37.468;2023-03-04T13:51:29;96332.66;;;2.26;70.50
49178;BME280;35016;55.674;37.468;2023-03-04T13:56:37;96324.19;;;2.19;70.52
49178;BME280;35016;55.674;37.468;2023-03-04T14:06:41;96309.41;;;2.03;70.82
49178;BME280;35016;55.674;37.468;2023-03-04T14:09:15;96304.09;;;1.98;71.06
49178;BME280;35016;55.674;37.468;2023-03-04T14:12:01;96304.66;;;1.95;70.94
49178;BME280;35016;55.674;37.468;2023-03-04T14:14:41;96297.72;;;1.94;70.78
49178;BME280;35016;55.674;37.468;2023-03-04T14:19:56;96298.28;;;1.91;70.69
49178;BME280;35016;55.674;37.468;2023-03-04T14:22:40;96292.72;;;1.87;71.08
49178;BME280;35016;55.674;37.468;2023-03-04T14:25:22;96295.44;;;1.82;70.62
49178;BME280;35016;55.674;37.468;2023-03-04T14:27:49;96280.50;;;1.81;70.78
49178;BME280;35016;55.674;37.468;2023-03-04T14:30:19;96285.91;;;1.76;70.72
49178;BME280;35016;55.674;37.468;2023-03-04T14:33:05;96280.31;;;1.72;71.03
49178;BME280;35016;55.674;37.468;2023-03-04T14:35:33;96278.47;;;1.68;70.94
49178;BME280;35016;55.674;37.468;2023-03-04T14:38:01;96271.88;;;1.60;70.73
49178;BME280;35016;55.674;37.468;2023-03-04T14:40:32;96262.06;;;1.55;70.96
49178;BME280;35016;55.674;37.468;2023-03-04T14:43:06;96257.00;;;1.54;71.02
49178;BME280;35016;55.674;37.468;2023-03-04T14:45:36;96260.22;;;1.51;70.83
49178;BME280;35016;55.674;37.468;2023-03-04T14:48:05;96255.69;;;1.51;71.19
49178;BME280;35016;55.674;37.468;2023-03-04T14:50:32;96251.41;;;1.50;70.78
49178;BME280;35016;55.674;37.468;2023-03-04T14:53:04;96249.81;;;1.49;70.92
49178;BME280;35016;55.674;37.468;2023-03-04T14:55:38;96252.00;;;1.47;70.97
49178;BME280;35016;55.674;37.468;2023-03-04T14:58:06;96246.38;;;1.44;70.86
49178;BME280;35016;55.674;37.468;2023-03-04T15:00:41;96237.88;;;1.42;71.13
49178;BME280;35016;55.674;37.468;2023-03-04T15:03:18;96240.81;;;1.40;70.87
49178;BME280;35016;55.674;37.468;2023-03-04T15:05:47;96238.16;;;1.40;71.21